createdAt,value
2022-09-13T00:01:08.317Z,3.37
2022-09-13T00:03:36.929Z,2.70
2022-09-13T00:06:09.892Z,3.50
2022-09-13T00:08:38.331Z,3.13
2022-09-13T00:11:08.563Z,3.20
2022-09-13T00:13:37.001Z,2.97
2022-09-13T00:16:05.480Z,3.60
2022-09-13T00:18:35.035Z,2.60
2022-09-13T00:21:09.179Z,3.03
2022-09-13T00:23:38.044Z,2.80
2022-09-13T00:26:09.883Z,2.70
2022-09-13T00:28:38.667Z,2.90
2022-09-13T00:31:08.914Z,2.77
2022-09-13T00:33:37.635Z,3.00
2022-09-13T00:36:07.488Z,2.93
2022-09-13T00:38:37.046Z,3.47
2022-09-13T00:41:07.046Z,2.70
2022-09-13T00:43:46.114Z,2.40
2022-09-13T00:46:18.147Z,3.37
2022-09-13T00:48:48.870Z,4.13
2022-09-13T00:51:17.578Z,3.47
2022-09-13T00:53:49.677Z,3.23
2022-09-13T00:56:21.194Z,3.37
2022-09-13T00:58:53.747Z,3.70
2022-09-13T01:01:24.975Z,2.70
2022-09-13T01:03:53.555Z,4.00
2022-09-13T01:06:23.908Z,2.83
2022-09-13T01:08:53.874Z,3.30
2022-09-13T01:11:32.138Z,2.80
2022-09-13T01:14:02.074Z,3.73
2022-09-13T01:16:31.027Z,2.80
2022-09-13T01:18:59.643Z,2.67
2022-09-13T01:21:53.561Z,2.97
2022-09-13T01:25:05.726Z,2.70
2022-09-13T01:27:46.863Z,2.90
2022-09-13T01:30:21.038Z,2.83
2022-09-13T01:33:32.850Z,3.13
2022-09-13T01:36:24.129Z,3.17
2022-09-13T01:38:58.567Z,4.20
2022-09-13T01:41:50.783Z,4.43
2022-09-13T01:44:29.275Z,5.17
2022-09-13T01:47:04.748Z,2.60
2022-09-13T01:49:36.395Z,4.90
2022-09-13T01:52:09.683Z,2.77
2022-09-13T01:54:40.991Z,2.90
2022-09-13T01:57:15.729Z,2.50
2022-09-13T01:59:49.655Z,2.70
2022-09-13T02:02:21.819Z,5.67
2022-09-13T02:04:54.372Z,2.50
2022-09-13T02:07:25.175Z,2.60
2022-09-13T02:09:58.055Z,3.03
2022-09-13T02:12:29.018Z,2.80
2022-09-13T02:15:00.389Z,2.83
2022-09-13T02:17:34.042Z,2.60
2022-09-13T02:20:04.638Z,2.50
2022-09-13T02:22:35.658Z,3.07
2022-09-13T02:25:07.854Z,4.03
2022-09-13T02:27:38.753Z,4.50
2022-09-13T02:30:10.218Z,2.73
2022-09-13T02:32:42.280Z,2.63
2022-09-13T02:35:15.287Z,3.30
2022-09-13T02:37:45.119Z,2.63
2022-09-13T02:40:22.855Z,2.43
2022-09-13T02:42:54.291Z,2.60
2022-09-13T02:45:23.569Z,2.70
2022-09-13T02:47:57.614Z,2.20
2022-09-13T02:50:34.893Z,7.53
2022-09-13T02:53:06.852Z,10.07
2022-09-13T02:55:43.383Z,7.23
2022-09-13T02:58:14.875Z,12.03
2022-09-13T03:00:43.859Z,4.57
2022-09-13T03:03:15.881Z,3.87
2022-09-13T03:05:44.758Z,4.10
2022-09-13T03:08:15.702Z,3.40
2022-09-13T03:11:01.440Z,3.63
2022-09-13T03:13:42.291Z,2.93
2022-09-13T03:16:24.295Z,2.73
2022-09-13T03:19:03.549Z,5.07
2022-09-13T03:21:45.606Z,3.93
2022-09-13T03:24:19.463Z,3.60
2022-09-13T03:26:56.950Z,3.30
2022-09-13T03:29:31.680Z,2.60
2022-09-13T03:32:07.812Z,4.20
2022-09-13T03:34:44.404Z,3.03
2022-09-13T03:37:17.504Z,3.00
2022-09-13T03:39:51.478Z,2.80
2022-09-13T03:42:27.212Z,2.70
2022-09-13T03:44:57.751Z,4.30
2022-09-13T03:47:27.430Z,2.70
2022-09-13T03:49:57.782Z,3.27
2022-09-13T03:52:26.292Z,4.63
2022-09-13T03:54:55.138Z,5.67
2022-09-13T03:57:24.321Z,4.73
2022-09-13T03:59:54.999Z,3.70
2022-09-13T04:02:24.981Z,4.10
2022-09-13T04:04:53.700Z,3.10
2022-09-13T04:07:25.403Z,3.53
2022-09-13T04:09:53.762Z,4.23
2022-09-13T04:12:22.332Z,3.30
2022-09-13T04:14:50.859Z,9.67
2022-09-13T04:17:19.373Z,5.10
2022-09-13T04:19:48.074Z,4.37
2022-09-13T04:22:16.871Z,3.70
2022-09-13T04:24:46.784Z,4.03
2022-09-13T04:27:15.220Z,3.70
2022-09-13T04:29:43.620Z,3.60
2022-09-13T04:32:12.108Z,3.33
2022-09-13T04:34:40.656Z,3.80
2022-09-13T04:37:10.349Z,4.17
2022-09-13T04:39:38.715Z,3.67
2022-09-13T04:42:08.945Z,2.70
2022-09-13T04:44:37.360Z,3.30
2022-09-13T04:47:06.230Z,3.43
2022-09-13T04:49:34.951Z,2.53
2022-09-13T04:52:03.843Z,2.83
2022-09-13T04:54:32.295Z,2.30
2022-09-13T04:57:00.741Z,2.40
2022-09-13T04:59:30.533Z,2.10
2022-09-13T05:01:58.936Z,2.50
2022-09-13T05:04:27.453Z,2.60
2022-09-13T05:06:56.009Z,2.60
2022-09-13T05:09:24.580Z,3.10
2022-09-13T05:11:53.023Z,3.23
2022-09-13T05:14:21.435Z,3.30
2022-09-13T05:16:51.341Z,6.53
2022-09-13T05:19:19.825Z,15.03
2022-09-13T05:21:48.291Z,5.70
2022-09-13T05:24:16.678Z,3.43
2022-09-13T05:26:45.083Z,3.20
2022-09-13T05:29:13.514Z,3.53
2022-09-13T05:31:43.602Z,3.10
2022-09-13T05:34:15.027Z,2.87
2022-09-13T05:36:43.552Z,3.13
2022-09-13T05:42:03.926Z,3.23
2022-09-13T05:44:32.398Z,3.47
2022-09-13T05:47:00.770Z,3.63
2022-09-13T05:49:30.805Z,4.73
2022-09-13T05:51:59.179Z,4.13
2022-09-13T05:54:27.646Z,4.50
2022-09-13T05:56:57.580Z,5.27
2022-09-13T05:59:26.084Z,4.30
2022-09-13T06:01:54.612Z,5.13
2022-09-13T06:04:23.003Z,5.00
2022-09-13T06:06:52.798Z,4.47
2022-09-13T06:09:21.259Z,5.03
2022-09-13T06:11:49.698Z,13.27
2022-09-13T06:14:18.765Z,10.37
2022-09-13T06:16:47.159Z,16.13
2022-09-13T06:19:15.559Z,6.93
2022-09-13T06:21:43.965Z,4.60
2022-09-13T06:24:14.865Z,3.90
2022-09-13T06:26:43.443Z,3.30
2022-09-13T06:29:12.676Z,4.77
2022-09-13T06:31:44.666Z,4.27
2022-09-13T06:34:15.572Z,4.47
2022-09-13T06:36:44.057Z,5.57
2022-09-13T06:39:13.914Z,5.30
2022-09-13T06:41:42.365Z,4.93
2022-09-13T06:44:11.088Z,5.53
2022-09-13T06:46:40.006Z,3.33
2022-09-13T06:49:09.232Z,3.60
2022-09-13T06:51:37.699Z,6.00
2022-09-13T06:54:06.467Z,5.10
2022-09-13T06:56:38.307Z,4.63
2022-09-13T06:59:08.485Z,5.60
2022-09-13T07:01:38.503Z,4.43
2022-09-13T07:04:08.201Z,3.33
2022-09-13T07:06:38.922Z,3.57
2022-09-13T07:09:09.880Z,6.93
2022-09-13T07:11:43.546Z,6.10
2022-09-13T07:14:14.511Z,5.00
2022-09-13T07:16:45.591Z,3.30
2022-09-13T07:19:15.843Z,6.13
2022-09-13T07:21:44.323Z,4.27
2022-09-13T07:24:13.302Z,4.67
2022-09-13T07:26:43.250Z,3.03
2022-09-13T07:29:16.254Z,3.30
2022-09-13T07:31:46.661Z,4.40
2022-09-13T07:34:16.395Z,4.13
2022-09-13T07:36:49.274Z,3.40
2022-09-13T07:39:22.295Z,2.97
2022-09-13T07:41:54.668Z,3.30
2022-09-13T07:44:23.840Z,4.00
2022-09-13T07:46:52.255Z,3.57
2022-09-13T07:49:20.958Z,3.70
2022-09-13T07:51:51.372Z,3.60
2022-09-13T07:54:20.788Z,3.30
2022-09-13T07:56:51.673Z,3.20
2022-09-13T07:59:21.602Z,3.50
2022-09-13T08:01:52.070Z,4.60
2022-09-13T08:04:22.373Z,3.80
2022-09-13T08:06:50.984Z,3.20
2022-09-13T08:09:19.591Z,3.33
2022-09-13T08:11:49.786Z,3.53
2022-09-13T08:14:19.332Z,4.23
2022-09-13T08:16:49.229Z,4.07
2022-09-13T08:19:19.401Z,3.50
2022-09-13T08:21:48.365Z,3.47
2022-09-13T08:24:18.210Z,4.30
2022-09-13T08:26:47.653Z,9.00
2022-09-13T08:29:16.917Z,7.80
2022-09-13T08:31:45.403Z,4.20
2022-09-13T08:34:16.316Z,5.30
2022-09-13T08:36:44.947Z,4.20
2022-09-13T08:39:14.428Z,4.73
2022-09-13T08:42:05.579Z,5.57
2022-09-13T08:44:36.743Z,3.37
2022-09-13T08:47:24.861Z,4.20
2022-09-13T08:50:00.898Z,3.53
2022-09-13T08:52:31.947Z,4.67
2022-09-13T08:55:05.092Z,3.73
2022-09-13T08:57:37.546Z,3.30
2022-09-13T09:00:18.899Z,4.83
2022-09-13T09:03:04.179Z,3.80
2022-09-13T09:05:42.683Z,3.80
2022-09-13T09:08:14.695Z,3.97
2022-09-13T09:10:45.502Z,3.10
2022-09-13T09:13:24.328Z,3.20
2022-09-13T09:15:56.035Z,3.00
2022-09-13T09:18:26.769Z,7.07
2022-09-13T09:20:57.939Z,4.20
2022-09-13T09:23:28.046Z,3.20
2022-09-13T09:25:59.148Z,6.07
2022-09-13T09:28:31.553Z,5.70
2022-09-13T09:31:04.534Z,4.20
2022-09-13T09:33:44.860Z,4.43
2022-09-13T09:36:21.287Z,3.00
2022-09-13T09:38:49.919Z,3.70
2022-09-13T09:41:27.916Z,3.67
2022-09-13T09:44:00.517Z,2.93
2022-09-13T09:46:34.175Z,3.10
2022-09-13T09:49:29.809Z,4.03
2022-09-13T09:52:00.578Z,3.00
2022-09-13T09:54:31.555Z,3.17
2022-09-13T09:57:00.339Z,3.60
2022-09-13T09:59:32.135Z,2.83
2022-09-13T10:02:02.054Z,3.10
2022-09-13T10:04:30.750Z,3.10
2022-09-13T10:07:29.074Z,2.80
2022-09-13T10:10:03.330Z,3.67
2022-09-13T10:12:34.977Z,8.17
2022-09-13T10:15:13.409Z,4.43
2022-09-13T10:17:41.897Z,3.90
2022-09-13T10:20:26.679Z,3.40
2022-09-13T10:23:20.444Z,3.30
2022-09-13T10:26:13.598Z,3.07
2022-09-13T10:28:47.634Z,4.33
2022-09-13T10:31:19.796Z,7.67
2022-09-13T10:33:59.178Z,3.33
2022-09-13T10:36:51.137Z,3.50
2022-09-13T10:39:21.529Z,3.33
2022-09-13T10:41:52.530Z,3.37
2022-09-13T10:44:35.421Z,3.67
2022-09-13T10:47:13.650Z,3.43
2022-09-13T10:49:50.611Z,3.20
2022-09-13T10:52:28.048Z,3.57
2022-09-13T10:55:26.870Z,3.43
2022-09-13T10:57:56.803Z,3.40
2022-09-13T11:00:31.169Z,3.17
2022-09-13T11:03:15.944Z,6.43
2022-09-13T11:05:47.534Z,6.07
2022-09-13T11:08:41.719Z,3.40
2022-09-13T11:11:18.979Z,3.27
2022-09-13T11:13:56.954Z,3.50
2022-09-13T11:16:35.942Z,3.10
2022-09-13T11:19:15.049Z,4.13
2022-09-13T11:21:53.755Z,3.30
2022-09-13T11:24:43.407Z,3.53
2022-09-13T11:27:20.907Z,3.50
2022-09-13T11:30:11.535Z,3.50
2022-09-13T11:32:52.806Z,3.47
2022-09-13T11:35:43.052Z,3.83
2022-09-13T11:38:29.323Z,3.60
2022-09-13T11:41:02.379Z,3.20
2022-09-13T11:43:42.547Z,3.33
2022-09-13T11:46:17.277Z,3.60
2022-09-13T11:49:02.491Z,3.30
2022-09-13T11:51:40.889Z,4.67
2022-09-13T11:54:20.855Z,8.73
2022-09-13T11:56:51.918Z,3.87
2022-09-13T11:59:29.825Z,4.77
2022-09-13T12:02:01.044Z,3.90
2022-09-13T12:04:34.058Z,3.63
2022-09-13T12:07:05.970Z,4.30
2022-09-13T12:09:38.398Z,5.72
2022-09-13T12:12:08.906Z,4.40
2022-09-13T12:14:46.883Z,4.63
2022-09-13T12:17:25.475Z,3.80
2022-09-13T12:19:55.931Z,5.28
2022-09-13T12:22:30.641Z,4.05
2022-09-13T12:25:03.389Z,5.70
2022-09-13T12:27:40.127Z,7.95
2022-09-13T12:30:16.606Z,4.65
2022-09-13T12:32:46.471Z,4.50
2022-09-13T12:35:23.128Z,6.03
2022-09-13T12:38:05.258Z,3.70
2022-09-13T12:40:45.524Z,3.42
2022-09-13T12:43:33.267Z,4.40
2022-09-13T12:46:20.064Z,5.53
2022-09-13T12:49:13.179Z,4.10
2022-09-13T12:51:57.490Z,3.95
2022-09-13T12:54:42.479Z,3.70
2022-09-13T12:57:28.791Z,3.53
2022-09-13T13:00:20.599Z,4.63
2022-09-13T13:03:11.662Z,3.50
2022-09-13T13:05:43.149Z,3.25
2022-09-13T13:08:27.891Z,3.90
2022-09-13T13:11:05.119Z,4.10
2022-09-13T13:13:37.085Z,3.63
2022-09-13T13:16:22.785Z,3.83
2022-09-13T13:18:53.443Z,4.27
2022-09-13T13:21:32.299Z,8.25
2022-09-13T13:24:38.251Z,9.23
2022-09-13T13:27:34.679Z,10.65
2022-09-13T13:30:44.148Z,12.48
2022-09-13T13:33:21.669Z,13.65
2022-09-13T13:35:51.982Z,10.48
2022-09-13T13:38:49.220Z,13.93
2022-09-13T13:41:53.590Z,10.40
2022-09-13T13:44:57.556Z,5.47
2022-09-13T13:48:03.129Z,5.38
2022-09-13T13:50:34.019Z,4.00
2022-09-13T13:53:23.341Z,4.32
2022-09-13T13:56:08.469Z,5.32
2022-09-13T13:58:46.425Z,4.53
2022-09-13T14:01:19.965Z,6.80
2022-09-13T14:04:00.202Z,10.57
2022-09-13T14:06:33.946Z,6.63
2022-09-13T14:09:08.783Z,4.47
2022-09-13T14:11:48.448Z,3.70
2022-09-13T14:14:34.062Z,5.55
2022-09-13T14:17:35.358Z,5.15
2022-09-13T14:20:06.597Z,4.60
2022-09-13T14:22:35.015Z,3.95
2022-09-13T14:25:23.482Z,3.75
2022-09-13T14:27:55.353Z,4.18
2022-09-13T14:30:27.087Z,4.55
2022-09-13T14:32:57.815Z,3.90
2022-09-13T14:35:29.245Z,4.13
2022-09-13T14:38:00.931Z,3.70
2022-09-13T14:40:30.801Z,4.68
2022-09-13T14:42:59.331Z,14.40
2022-09-13T14:45:31.397Z,5.10
2022-09-13T14:48:04.200Z,4.15
2022-09-13T14:50:35.303Z,4.55
2022-09-13T14:53:06.158Z,4.20
2022-09-13T14:55:39.059Z,4.55
2022-09-13T14:58:08.493Z,3.55
2022-09-13T15:00:49.461Z,3.90
2022-09-13T15:03:19.510Z,3.65
2022-09-13T15:05:54.083Z,3.55
2022-09-13T15:08:45.004Z,5.18
2022-09-13T15:11:18.434Z,3.58
2022-09-13T15:13:46.955Z,7.15
2022-09-13T15:16:31.717Z,3.72
2022-09-13T15:19:42.129Z,3.88
2022-09-13T15:22:22.250Z,3.33
2022-09-13T15:24:54.441Z,3.58
2022-09-13T15:27:27.926Z,3.70
2022-09-13T15:29:58.270Z,10.73
2022-09-13T15:32:33.534Z,14.95
2022-09-13T15:35:03.104Z,7.72
2022-09-13T15:37:36.962Z,4.10
2022-09-13T15:40:29.776Z,3.80
2022-09-13T15:43:00.558Z,3.60
2022-09-13T15:45:28.968Z,4.05
2022-09-13T15:47:57.474Z,3.42
2022-09-13T15:50:30.973Z,3.97
2022-09-13T15:53:00.270Z,3.60
2022-09-13T15:55:29.545Z,3.53
2022-09-13T15:57:59.334Z,3.45
2022-09-13T16:00:28.811Z,3.53
2022-09-13T16:02:57.505Z,3.40
2022-09-13T16:05:26.044Z,3.55
2022-09-13T16:07:58.825Z,3.80
2022-09-13T16:10:27.263Z,3.45
2022-09-13T16:12:55.878Z,4.00
2022-09-13T16:15:25.817Z,3.97
2022-09-13T16:17:54.250Z,32.70
2022-09-13T16:20:22.906Z,7.90
2022-09-13T16:22:51.361Z,7.88
2022-09-13T16:25:19.763Z,5.90
2022-09-13T16:27:48.459Z,11.50
2022-09-13T16:30:19.916Z,8.10
2022-09-13T16:32:50.398Z,7.68
2022-09-13T16:35:19.096Z,5.80
2022-09-13T16:37:51.385Z,4.13
2022-09-13T16:40:20.399Z,4.72
2022-09-13T16:42:49.046Z,4.10
2022-09-13T16:45:17.642Z,4.88
2022-09-13T16:47:46.164Z,4.00
2022-09-13T16:50:16.273Z,4.50
2022-09-13T16:52:44.752Z,4.00
2022-09-13T16:55:13.454Z,3.60
2022-09-13T16:57:41.922Z,3.90
2022-09-13T17:00:11.764Z,4.03
2022-09-13T17:02:40.423Z,3.73
2022-09-13T17:05:11.070Z,3.80
2022-09-13T17:07:41.118Z,3.53
2022-09-13T17:10:12.466Z,4.10
2022-09-13T17:12:41.689Z,3.50
2022-09-13T17:15:10.954Z,4.80
2022-09-13T17:17:39.496Z,8.50
2022-09-13T17:20:10.638Z,10.37
2022-09-13T17:22:40.912Z,26.63
2022-09-13T17:25:10.129Z,22.67
2022-09-13T17:27:38.821Z,9.13
2022-09-13T17:30:08.818Z,8.97
2022-09-13T17:32:37.318Z,15.50
2022-09-13T17:35:07.158Z,17.13
2022-09-13T17:37:35.598Z,16.90
2022-09-13T17:42:43.987Z,7.23
2022-09-13T17:45:13.936Z,10.60
2022-09-13T17:47:42.336Z,9.20
2022-09-13T17:50:11.312Z,5.60
2022-09-13T17:52:40.007Z,7.47
2022-09-13T17:55:13.875Z,6.50
2022-09-13T17:57:43.665Z,4.73
2022-09-13T18:00:13.581Z,5.37
2022-09-13T18:02:45.336Z,5.90
2022-09-13T18:05:14.127Z,5.83
2022-09-13T18:07:42.674Z,5.53
2022-09-13T18:10:32.334Z,5.80
2022-09-13T18:13:01.342Z,7.87
2022-09-13T18:15:29.898Z,6.47
2022-09-13T18:17:58.314Z,5.90
2022-09-13T18:20:26.754Z,7.27
2022-09-13T18:22:55.152Z,28.40
2022-09-13T18:25:23.774Z,68.13
2022-09-13T18:27:52.223Z,44.23
2022-09-13T18:30:21.999Z,33.17
2022-09-13T18:32:50.410Z,17.63
2022-09-13T18:35:18.830Z,17.40
2022-09-13T18:37:47.224Z,28.43
2022-09-13T18:40:17.456Z,20.53
2022-09-13T18:42:46.339Z,11.20
2022-09-13T18:45:15.131Z,8.60
2022-09-13T18:47:44.943Z,24.83
2022-09-13T18:50:17.996Z,21.37
2022-09-13T18:52:48.225Z,18.17
2022-09-13T18:55:16.922Z,16.40
2022-09-13T18:57:45.303Z,13.90
2022-09-13T19:00:14.085Z,10.23
2022-09-13T19:03:02.014Z,11.63
2022-09-13T19:05:33.690Z,9.30
2022-09-13T19:08:02.303Z,7.43
2022-09-13T19:10:32.418Z,7.63
2022-09-13T19:13:00.918Z,8.03
2022-09-13T19:15:29.413Z,8.57
2022-09-13T19:17:59.368Z,15.23
2022-09-13T19:20:27.908Z,22.07
2022-09-13T19:22:58.112Z,20.30
2022-09-13T19:25:28.095Z,18.17
2022-09-13T19:27:56.509Z,12.00
2022-09-13T19:30:25.119Z,7.50
2022-09-13T19:32:53.539Z,7.60
2022-09-13T19:35:23.428Z,6.80
2022-09-13T19:37:51.921Z,6.50
2022-09-13T19:40:20.419Z,7.37
2022-09-13T19:42:49.122Z,5.97
2022-09-13T19:45:17.701Z,5.00
2022-09-13T19:48:36.909Z,6.70
2022-09-13T19:50:40.533Z,6.87
2022-09-13T19:53:09.653Z,5.97
2022-09-13T19:55:45.388Z,5.70
2022-09-13T19:58:15.045Z,6.03
2022-09-13T20:00:43.826Z,7.00
2022-09-13T20:03:12.679Z,6.83
2022-09-13T20:05:42.515Z,6.03
2022-09-13T20:08:11.425Z,5.90
2022-09-13T20:10:39.838Z,6.43
2022-09-13T20:13:08.325Z,6.80
2022-09-13T20:15:39.985Z,7.07
2022-09-13T20:18:13.195Z,5.80
2022-09-13T20:20:43.340Z,7.40
2022-09-13T20:23:12.104Z,7.57
2022-09-13T20:25:41.895Z,5.53
2022-09-13T20:28:10.844Z,6.83
2022-09-13T20:30:41.484Z,6.77
2022-09-13T20:33:11.534Z,5.70
2022-09-13T20:35:40.130Z,6.60
2022-09-13T20:38:10.020Z,6.17
2022-09-13T20:40:38.538Z,5.47
2022-09-13T20:43:07.016Z,6.63
2022-09-13T20:45:35.618Z,6.70
2022-09-13T20:48:04.316Z,6.27
2022-09-13T20:50:32.895Z,8.00
2022-09-13T20:53:01.361Z,5.97
2022-09-13T20:55:31.161Z,5.47
2022-09-13T20:58:00.946Z,6.27
2022-09-13T21:00:29.502Z,7.93
2022-09-13T21:02:58.033Z,7.63
2022-09-13T21:05:26.488Z,8.60
2022-09-13T21:08:12.344Z,5.87
2022-09-13T21:10:42.375Z,6.50
2022-09-13T21:13:10.811Z,6.27
2022-09-13T21:15:40.182Z,5.67
2022-09-13T21:18:09.454Z,6.23
2022-09-13T21:20:37.944Z,4.90
2022-09-13T21:23:06.367Z,5.37
2022-09-13T21:25:37.041Z,5.10
2022-09-13T21:28:06.930Z,9.17
2022-09-13T21:30:35.471Z,5.60
2022-09-13T21:33:04.044Z,7.17
2022-09-13T21:35:32.452Z,6.77
2022-09-13T21:38:00.963Z,5.93
2022-09-13T21:40:29.419Z,5.13
2022-09-13T21:42:58.239Z,5.43
2022-09-13T21:45:30.711Z,4.57
2022-09-13T21:47:59.117Z,4.70
2022-09-13T21:50:27.546Z,4.73
2022-09-13T21:52:55.938Z,4.63
2022-09-13T21:55:24.686Z,5.77
2022-09-13T21:57:53.587Z,6.57
2022-09-13T22:00:22.941Z,9.47
2022-09-13T22:02:52.871Z,7.27
2022-09-13T22:05:21.525Z,7.23
2022-09-13T22:07:50.027Z,5.60
2022-09-13T22:10:18.659Z,7.27
2022-09-13T22:12:50.646Z,6.50
2022-09-13T22:15:19.070Z,5.47
2022-09-13T22:17:47.568Z,6.80
2022-09-13T22:20:17.575Z,5.40
2022-09-13T22:22:46.070Z,6.87
2022-09-13T22:25:14.727Z,6.57
2022-09-13T22:27:43.151Z,6.40
2022-09-13T22:30:12.703Z,4.73
2022-09-13T22:32:41.159Z,4.63
2022-09-13T22:35:10.551Z,6.20
2022-09-13T22:37:40.536Z,6.33
2022-09-13T22:40:09.746Z,5.00
2022-09-13T22:42:38.202Z,6.53
2022-09-13T22:45:07.910Z,5.90
2022-09-13T22:47:36.461Z,5.17
2022-09-13T22:50:05.638Z,5.23
2022-09-13T22:52:34.122Z,5.00
2022-09-13T22:55:04.025Z,5.60
2022-09-13T22:57:32.472Z,6.10
2022-09-13T23:00:00.919Z,7.07
2022-09-13T23:02:29.327Z,4.70
2022-09-13T23:04:57.679Z,5.57
2022-09-13T23:07:26.215Z,4.70
2022-09-13T23:09:54.698Z,5.63
2022-09-13T23:12:24.547Z,4.90
2022-09-13T23:14:53.009Z,4.83
2022-09-13T23:17:21.607Z,4.97
2022-09-13T23:19:50.071Z,4.83
2022-09-13T23:22:18.469Z,4.27
2022-09-13T23:24:46.910Z,5.10
2022-09-13T23:27:15.400Z,6.50
2022-09-13T23:29:45.561Z,4.80
2022-09-13T23:32:13.995Z,7.77
2022-09-13T23:34:42.519Z,4.37
2022-09-13T23:37:11.314Z,4.80
2022-09-13T23:39:39.734Z,4.73
2022-09-13T23:42:08.359Z,5.07
2022-09-13T23:44:36.790Z,8.37
2022-09-13T23:47:06.828Z,7.93
2022-09-13T23:49:35.250Z,6.50
2022-09-13T23:52:03.998Z,4.83
2022-09-13T23:54:32.447Z,4.87
2022-09-13T23:57:00.957Z,4.90
2022-09-13T23:59:30.141Z,4.67
